createdAt,value
2019-03-12T00:00:40.939Z,0.00
2019-03-12T00:01:40.939Z,0.00
2019-03-12T00:02:40.899Z,0.00
2019-03-12T00:03:40.875Z,0.00
2019-03-12T00:04:40.846Z,0.00
2019-03-12T00:05:40.971Z,0.00
2019-03-12T00:06:40.809Z,0.00
2019-03-12T00:07:40.783Z,0.00
2019-03-12T00:08:40.756Z,0.00
2019-03-12T00:09:40.735Z,0.00
2019-03-12T00:10:40.711Z,0.00
2019-03-12T00:11:40.715Z,0.00
2019-03-12T00:12:40.671Z,0.00
2019-03-12T00:13:40.643Z,0.00
2019-03-12T00:14:40.694Z,0.00
2019-03-12T00:15:40.606Z,0.00
2019-03-12T00:16:40.580Z,0.00
2019-03-12T00:17:40.569Z,0.00
2019-03-12T00:18:40.525Z,0.00
2019-03-12T00:19:40.507Z,0.00
2019-03-12T00:20:40.488Z,0.00
2019-03-12T00:21:40.475Z,0.00
2019-03-12T00:22:40.439Z,0.00
2019-03-12T00:23:40.416Z,0.00
2019-03-12T00:24:40.390Z,0.00
2019-03-12T00:25:40.365Z,0.00
2019-03-12T00:26:40.347Z,0.00
2019-03-12T00:27:40.336Z,0.00
2019-03-12T00:28:40.325Z,0.00
2019-03-12T00:29:40.290Z,0.00
2019-03-12T00:30:40.253Z,0.00
2019-03-12T00:31:40.228Z,0.00
2019-03-12T00:32:40.204Z,0.00
2019-03-12T00:33:40.179Z,0.00
2019-03-12T00:34:40.171Z,0.00
2019-03-12T00:35:40.135Z,0.00
2019-03-12T00:36:40.110Z,0.00
2019-03-12T00:37:40.087Z,0.00
2019-03-12T00:38:40.075Z,0.00
2019-03-12T00:39:40.064Z,0.00
2019-03-12T00:40:40.026Z,0.00
2019-03-12T00:41:40.001Z,0.00
2019-03-12T00:42:39.972Z,0.00
2019-03-12T00:43:39.959Z,0.00
2019-03-12T00:44:39.947Z,0.00
2019-03-12T00:45:39.912Z,0.00
2019-03-12T00:46:39.905Z,0.00
2019-03-12T00:47:39.870Z,0.00
2019-03-12T00:48:39.838Z,0.00
2019-03-12T00:49:39.821Z,0.00
2019-03-12T00:50:39.797Z,0.00
2019-03-12T00:51:39.768Z,0.00
2019-03-12T00:52:39.763Z,0.00
2019-03-12T00:53:39.725Z,0.00
2019-03-12T00:54:39.704Z,0.00
2019-03-12T00:55:39.677Z,0.00
2019-03-12T00:56:39.669Z,0.00
2019-03-12T00:57:39.627Z,0.00
2019-03-12T00:58:39.608Z,0.00
2019-03-12T00:59:39.582Z,0.00
2019-03-12T01:00:39.670Z,0.00
2019-03-12T01:01:39.562Z,0.00
2019-03-12T01:02:39.533Z,0.00
2019-03-12T01:03:39.493Z,0.00
2019-03-12T01:04:39.464Z,0.00
2019-03-12T01:05:39.444Z,0.00
2019-03-12T01:06:39.427Z,0.00
2019-03-12T01:07:39.404Z,0.00
2019-03-12T01:08:39.390Z,0.00
2019-03-12T01:09:39.422Z,0.00
2019-03-12T01:10:39.328Z,0.00
2019-03-12T01:11:39.322Z,0.00
2019-03-12T01:12:39.297Z,0.00
2019-03-12T01:13:39.271Z,0.00
2019-03-12T01:14:39.236Z,0.00
2019-03-12T01:15:39.213Z,0.00
2019-03-12T01:16:39.191Z,0.00
2019-03-12T01:17:39.180Z,0.00
2019-03-12T01:18:39.160Z,0.00
2019-03-12T01:19:39.132Z,0.00
2019-03-12T01:20:39.098Z,0.00
2019-03-12T01:21:39.077Z,0.00
2019-03-12T01:22:39.051Z,0.00
2019-03-12T01:23:39.028Z,0.00
2019-03-12T01:24:39.019Z,0.00
2019-03-12T01:25:38.987Z,0.00
2019-03-12T01:26:38.979Z,0.00
2019-03-12T01:27:38.939Z,0.00
2019-03-12T01:28:38.914Z,0.00
2019-03-12T01:29:38.888Z,0.00
2019-03-12T01:30:38.867Z,0.00
2019-03-12T01:31:38.844Z,0.00
2019-03-12T01:32:38.838Z,0.00
2019-03-12T01:33:38.796Z,0.00
2019-03-12T01:34:38.775Z,0.00
2019-03-12T01:35:38.750Z,0.00
2019-03-12T01:36:38.747Z,0.00
2019-03-12T01:37:38.706Z,0.00
2019-03-12T01:38:38.683Z,0.00
2019-03-12T01:39:38.659Z,0.00
2019-03-12T01:40:38.635Z,0.00
2019-03-12T01:41:38.613Z,0.00
2019-03-12T01:42:38.608Z,0.00
2019-03-12T01:43:38.566Z,0.00
2019-03-12T01:44:38.548Z,0.00
2019-03-12T01:45:38.542Z,0.00
2019-03-12T01:46:38.502Z,0.00
2019-03-12T01:47:38.493Z,0.00
2019-03-12T01:48:38.468Z,0.00
2019-03-12T01:49:38.430Z,0.00
2019-03-12T01:50:38.407Z,0.00
2019-03-12T01:51:38.384Z,0.00
2019-03-12T01:52:38.359Z,0.00
2019-03-12T01:53:38.360Z,0.00
2019-03-12T01:54:38.316Z,0.00
2019-03-12T01:55:38.291Z,0.00
2019-03-12T01:56:38.267Z,0.00
2019-03-12T01:57:38.240Z,0.00
2019-03-12T01:58:38.225Z,0.00
2019-03-12T01:59:38.210Z,0.00
2019-03-12T02:00:38.175Z,0.00
2019-03-12T02:01:38.166Z,0.00
2019-03-12T02:02:38.129Z,0.00
2019-03-12T02:03:38.131Z,0.00
2019-03-12T02:04:38.094Z,0.00
2019-03-12T02:05:38.059Z,0.00
2019-03-12T02:06:38.035Z,0.00
2019-03-12T02:07:38.013Z,0.00
2019-03-12T02:08:37.991Z,0.00
2019-03-12T02:09:37.983Z,0.00
2019-03-12T02:10:37.962Z,0.00
2019-03-12T02:11:37.924Z,0.00
2019-03-12T02:12:37.902Z,0.00
2019-03-12T02:13:37.876Z,0.00
2019-03-12T02:14:38.413Z,0.00
2019-03-12T02:15:37.833Z,0.00
2019-03-12T02:16:37.830Z,0.00
2019-03-12T02:17:37.799Z,0.00
2019-03-12T02:18:38.382Z,0.00
2019-03-12T02:19:37.736Z,0.00
2019-03-12T02:20:37.713Z,0.00
2019-03-12T02:21:37.694Z,0.00
2019-03-12T02:22:37.774Z,0.00
2019-03-12T02:23:37.647Z,0.00
2019-03-12T02:24:37.622Z,0.00
2019-03-12T02:25:37.621Z,0.00
2019-03-12T02:26:37.577Z,0.00
2019-03-12T02:27:37.556Z,0.00
2019-03-12T02:28:37.551Z,0.00
2019-03-12T02:29:37.513Z,0.00
2019-03-12T02:30:37.489Z,0.00
2019-03-12T02:31:37.463Z,0.00
2019-03-12T02:32:37.436Z,0.00
2019-03-12T02:33:37.520Z,0.00
2019-03-12T02:34:37.456Z,0.00
2019-03-12T02:35:37.381Z,0.00
2019-03-12T02:36:37.482Z,0.00
2019-03-12T02:37:37.921Z,0.00
2019-03-12T02:38:37.312Z,0.00
2019-03-12T02:39:37.300Z,0.00
2019-03-12T02:40:37.267Z,0.00
2019-03-12T02:41:37.237Z,0.00
2019-03-12T02:42:37.215Z,0.00
2019-03-12T02:43:37.212Z,0.00
2019-03-12T02:44:37.171Z,0.00
2019-03-12T02:45:37.139Z,0.00
2019-03-12T02:46:37.174Z,0.00
2019-03-12T02:47:37.099Z,0.00
2019-03-12T02:48:37.074Z,0.00
2019-03-12T02:49:37.216Z,0.00
2019-03-12T02:50:37.893Z,0.00
2019-03-12T02:51:37.020Z,0.00
2019-03-12T02:52:36.980Z,0.00
2019-03-12T02:53:36.962Z,0.00
2019-03-12T02:54:36.952Z,0.00
2019-03-12T02:55:36.913Z,0.00
2019-03-12T02:56:36.903Z,0.00
2019-03-12T02:57:36.868Z,0.00
2019-03-12T02:58:36.839Z,0.00
2019-03-12T02:59:36.836Z,0.00
2019-03-12T03:00:36.815Z,0.00
2019-03-12T03:01:36.774Z,0.00
2019-03-12T03:02:36.758Z,0.00
2019-03-12T03:03:36.725Z,0.00
2019-03-12T03:04:36.710Z,0.00
2019-03-12T03:05:36.687Z,0.00
2019-03-12T03:06:36.672Z,0.00
2019-03-12T03:07:36.637Z,0.00
2019-03-12T03:08:36.612Z,0.00
2019-03-12T03:09:36.588Z,0.00
2019-03-12T03:10:36.563Z,0.00
2019-03-12T03:11:36.541Z,0.00
2019-03-12T03:12:36.537Z,0.00
2019-03-12T03:13:36.512Z,0.00
2019-03-12T03:14:36.473Z,0.00
2019-03-12T03:15:36.448Z,0.00
2019-03-12T03:16:36.428Z,0.00
2019-03-12T03:17:36.409Z,0.00
2019-03-12T03:18:36.381Z,0.00
2019-03-12T03:19:36.388Z,0.00
2019-03-12T03:20:36.335Z,0.00
2019-03-12T03:21:36.311Z,0.00
2019-03-12T03:22:36.295Z,0.00
2019-03-12T03:23:36.265Z,0.00
2019-03-12T03:24:36.242Z,0.00
2019-03-12T03:25:36.400Z,0.00
2019-03-12T03:26:36.198Z,0.00
2019-03-12T03:27:36.174Z,0.00
2019-03-12T03:28:36.149Z,0.00
2019-03-12T03:29:36.129Z,0.00
2019-03-12T03:30:36.132Z,0.00
2019-03-12T03:31:36.087Z,0.00
2019-03-12T03:32:36.055Z,0.00
2019-03-12T03:33:36.034Z,0.00
2019-03-12T03:34:36.010Z,0.00
2019-03-12T03:35:35.991Z,0.00
2019-03-12T03:36:35.983Z,0.00
2019-03-12T03:37:35.947Z,0.00
2019-03-12T03:38:35.936Z,0.00
2019-03-12T03:39:35.895Z,0.00
2019-03-12T03:40:35.871Z,0.00
2019-03-12T03:41:35.937Z,0.00
2019-03-12T03:42:35.835Z,0.00
2019-03-12T03:43:35.869Z,0.00
2019-03-12T03:44:35.778Z,0.00
2019-03-12T03:45:35.753Z,0.00
2019-03-12T03:46:35.732Z,0.00
2019-03-12T03:47:35.707Z,0.00
2019-03-12T03:48:35.686Z,0.00
2019-03-12T03:49:35.677Z,0.00
2019-03-12T03:50:35.638Z,0.00
2019-03-12T03:51:35.615Z,0.00
2019-03-12T03:52:35.593Z,0.00
2019-03-12T03:53:35.573Z,0.00
2019-03-12T03:54:35.553Z,0.00
2019-03-12T03:55:35.546Z,0.00
2019-03-12T03:56:35.492Z,0.00
2019-03-12T03:57:35.468Z,0.00
2019-03-12T03:58:35.453Z,0.00
2019-03-12T03:59:35.432Z,0.00
2019-03-12T04:00:35.412Z,0.00
2019-03-12T04:01:35.398Z,0.00
2019-03-12T04:02:35.357Z,0.00
2019-03-12T04:03:35.352Z,0.00
2019-03-12T04:04:35.309Z,0.00
2019-03-12T04:05:35.286Z,0.00
2019-03-12T04:06:35.282Z,0.00
2019-03-12T04:07:35.238Z,0.00
2019-03-12T04:08:35.217Z,0.00
2019-03-12T04:09:35.197Z,0.00
2019-03-12T04:10:35.171Z,0.00
2019-03-12T04:11:35.162Z,0.00
2019-03-12T04:12:35.195Z,0.00
2019-03-12T04:13:35.106Z,0.00
2019-03-12T04:14:35.077Z,0.00
2019-03-12T04:15:35.061Z,0.00
2019-03-12T04:16:35.067Z,0.00
2019-03-12T04:17:35.034Z,0.00
2019-03-12T04:18:35.006Z,0.00
2019-03-12T04:19:34.965Z,0.00
2019-03-12T04:20:34.959Z,0.00
2019-03-12T04:21:34.921Z,0.00
2019-03-12T04:22:34.905Z,0.00
2019-03-12T04:23:34.872Z,0.00
2019-03-12T04:24:34.849Z,0.00
2019-03-12T04:25:34.823Z,0.00
2019-03-12T04:26:34.838Z,0.00
2019-03-12T04:27:34.777Z,0.00
2019-03-12T04:28:34.757Z,0.00
2019-03-12T04:29:34.733Z,0.00
2019-03-12T04:30:34.710Z,0.00
2019-03-12T04:31:34.690Z,0.00
2019-03-12T04:32:34.696Z,0.00
2019-03-12T04:33:34.638Z,0.00
2019-03-12T04:34:34.611Z,0.00
2019-03-12T04:35:34.593Z,0.00
2019-03-12T04:36:34.571Z,0.00
2019-03-12T04:37:34.547Z,0.00
2019-03-12T04:38:34.546Z,0.00
2019-03-12T04:39:34.519Z,0.00
2019-03-12T04:40:34.496Z,0.00
2019-03-12T04:41:34.451Z,0.00
2019-03-12T04:42:34.433Z,0.00
2019-03-12T04:43:34.428Z,0.00
2019-03-12T04:44:34.388Z,0.00
2019-03-12T04:45:34.361Z,0.00
2019-03-12T04:46:34.346Z,0.00
2019-03-12T04:47:34.319Z,0.00
2019-03-12T04:48:34.296Z,0.00
2019-03-12T04:49:34.294Z,0.00
2019-03-12T04:50:34.274Z,0.00
2019-03-12T04:51:34.226Z,0.00
2019-03-12T04:52:34.200Z,0.00
2019-03-12T04:53:37.344Z,0.00
2019-03-12T04:54:34.157Z,0.00
2019-03-12T04:55:34.134Z,0.00
2019-03-12T04:56:34.125Z,0.00
2019-03-12T04:57:34.087Z,0.00
2019-03-12T04:58:34.071Z,0.00
2019-03-12T04:59:34.040Z,0.00
2019-03-12T05:00:34.018Z,0.00
2019-03-12T05:01:34.011Z,0.00
2019-03-12T05:02:33.979Z,0.00
2019-03-12T05:03:33.953Z,0.00
2019-03-12T05:04:33.927Z,0.00
2019-03-12T05:05:33.908Z,0.00
2019-03-12T05:06:33.882Z,0.00
2019-03-12T05:07:33.871Z,0.00
2019-03-12T05:08:33.852Z,0.00
2019-03-12T05:09:33.817Z,0.00
2019-03-12T05:10:33.790Z,0.00
2019-03-12T05:11:33.765Z,0.00
2019-03-12T05:12:33.744Z,0.00
2019-03-12T05:13:33.742Z,0.00
2019-03-12T05:14:33.699Z,0.00
2019-03-12T05:15:34.399Z,0.00
2019-03-12T05:16:33.652Z,0.00
2019-03-12T05:17:33.630Z,0.00
2019-03-12T05:18:33.627Z,0.00
2019-03-12T05:19:33.590Z,0.00
2019-03-12T05:20:33.553Z,0.00
2019-03-12T05:21:33.539Z,0.00
2019-03-12T05:22:33.518Z,0.00
2019-03-12T05:23:33.515Z,0.00
2019-03-12T05:24:33.487Z,0.00
2019-03-12T05:25:33.470Z,0.00
2019-03-12T05:26:33.425Z,0.00
2019-03-12T05:27:33.400Z,0.00
2019-03-12T05:28:33.393Z,4.00
2019-03-12T05:29:33.360Z,4.00
2019-03-12T05:30:33.350Z,0.00
2019-03-12T05:31:33.312Z,4.00
2019-03-12T05:32:33.294Z,4.00
2019-03-12T05:33:33.263Z,4.00
2019-03-12T05:34:33.243Z,4.00
2019-03-12T05:35:33.222Z,4.00
2019-03-12T05:36:33.217Z,8.00
2019-03-12T05:37:33.174Z,8.00
2019-03-12T05:38:33.152Z,8.00
2019-03-12T05:39:33.412Z,12.00
2019-03-12T05:40:33.125Z,12.00
2019-03-12T05:41:33.081Z,16.00
2019-03-12T05:42:33.059Z,16.00
2019-03-12T05:43:33.037Z,20.00
2019-03-12T05:44:33.015Z,20.00
2019-03-12T05:45:32.993Z,28.00
2019-03-12T05:46:33.008Z,32.00
2019-03-12T05:47:32.949Z,40.00
2019-03-12T05:48:32.931Z,44.00
2019-03-12T05:49:32.902Z,48.00
2019-03-12T05:50:32.884Z,56.00
2019-03-12T05:51:32.868Z,60.00
2019-03-12T05:52:32.851Z,68.00
2019-03-12T05:53:32.830Z,76.00
2019-03-12T05:54:32.791Z,84.00
2019-03-12T05:55:32.768Z,88.00
2019-03-12T05:56:32.742Z,96.00
2019-03-12T05:57:32.720Z,100.00
2019-03-12T05:58:32.696Z,108.00
2019-03-12T05:59:32.700Z,120.00
2019-03-12T06:00:32.655Z,128.00
2019-03-12T06:01:32.633Z,136.00
2019-03-12T06:02:32.616Z,148.00
2019-03-12T06:03:32.601Z,156.00
2019-03-12T06:04:32.579Z,172.00
2019-03-12T06:05:32.555Z,184.00
2019-03-12T06:06:32.520Z,192.00
2019-03-12T06:07:32.499Z,208.00
2019-03-12T06:08:32.472Z,220.00
2019-03-12T06:09:32.451Z,240.00
2019-03-12T06:10:32.443Z,260.00
2019-03-12T06:11:32.429Z,288.00
2019-03-12T06:12:32.404Z,316.00
2019-03-12T06:13:32.369Z,360.00
2019-03-12T06:14:32.337Z,392.00
2019-03-12T06:15:32.324Z,428.00
2019-03-12T06:16:32.307Z,468.00
2019-03-12T06:17:32.279Z,508.00
2019-03-12T06:18:32.267Z,548.00
2019-03-12T06:19:32.222Z,584.00
2019-03-12T06:20:32.196Z,624.00
2019-03-12T06:21:32.188Z,648.00
2019-03-12T06:22:32.156Z,660.00
2019-03-12T06:23:32.153Z,660.00
2019-03-12T06:24:32.110Z,684.00
2019-03-12T06:25:32.090Z,704.00
2019-03-12T06:26:32.080Z,712.00
2019-03-12T06:27:32.057Z,712.00
2019-03-12T06:28:32.054Z,724.00
2019-03-12T06:29:31.998Z,748.00
2019-03-12T06:30:31.976Z,784.00
2019-03-12T06:31:31.954Z,832.00
2019-03-12T06:32:31.928Z,888.00
2019-03-12T06:33:31.905Z,940.00
2019-03-12T06:34:31.901Z,980.00
2019-03-12T06:35:31.865Z,1012.00
2019-03-12T06:36:31.841Z,1036.00
2019-03-12T06:37:31.819Z,1068.00
2019-03-12T06:38:31.811Z,1092.00
2019-03-12T06:39:31.774Z,1124.00
2019-03-12T06:40:31.766Z,1152.00
2019-03-12T06:41:31.732Z,1168.00
2019-03-12T06:42:31.731Z,1208.00
2019-03-12T06:43:31.687Z,1232.00
2019-03-12T06:44:31.663Z,1240.00
2019-03-12T06:45:31.636Z,1240.00
2019-03-12T06:46:31.620Z,1232.00
2019-03-12T06:47:31.598Z,1224.00
2019-03-12T06:48:31.589Z,1204.00
2019-03-12T06:49:31.559Z,1196.00
2019-03-12T06:50:31.526Z,1180.00
2019-03-12T06:51:31.507Z,1168.00
2019-03-12T06:52:31.481Z,1164.00
2019-03-12T06:53:31.464Z,1164.00
2019-03-12T06:54:31.457Z,1180.00
2019-03-12T06:55:31.420Z,1192.00
2019-03-12T06:56:31.402Z,1208.00
2019-03-12T06:57:31.544Z,1176.00
2019-03-12T06:58:31.346Z,1176.00
2019-03-12T06:59:31.345Z,1196.00
2019-03-12T07:00:31.317Z,1200.00
2019-03-12T07:01:31.280Z,1208.00
2019-03-12T07:02:31.260Z,1156.00
2019-03-12T07:03:31.240Z,1140.00
2019-03-12T07:04:31.217Z,1184.00
2019-03-12T07:05:31.218Z,1268.00
2019-03-12T07:06:31.190Z,1356.00
2019-03-12T07:07:31.148Z,1424.00
2019-03-12T07:08:31.130Z,1488.00
2019-03-12T07:09:31.120Z,1568.00
2019-03-12T07:10:31.087Z,1656.00
2019-03-12T07:11:31.058Z,1756.00
2019-03-12T07:12:31.034Z,1832.00
2019-03-12T07:13:31.011Z,1908.00
2019-03-12T07:14:31.000Z,1992.00
2019-03-12T07:15:31.007Z,2076.00
2019-03-12T07:16:30.949Z,2148.00
2019-03-12T07:17:30.927Z,2220.00
2019-03-12T07:18:30.927Z,2284.00
2019-03-12T07:19:30.876Z,2320.00
2019-03-12T07:20:30.860Z,2336.00
2019-03-12T07:21:30.837Z,2332.00
2019-03-12T07:22:30.821Z,2324.00
2019-03-12T07:23:30.796Z,2312.00
2019-03-12T07:24:30.787Z,2320.00
2019-03-12T07:25:30.758Z,2324.00
2019-03-12T07:26:30.726Z,2328.00
2019-03-12T07:27:30.713Z,2352.00
2019-03-12T07:28:30.682Z,2364.00
2019-03-12T07:29:30.662Z,2340.00
2019-03-12T07:30:30.657Z,2276.00
2019-03-12T07:31:30.617Z,2188.00
2019-03-12T07:32:30.593Z,2088.00
2019-03-12T07:33:30.576Z,2000.00
2019-03-12T07:34:36.644Z,1944.00
2019-03-12T07:35:30.561Z,1928.00
2019-03-12T07:36:30.509Z,1920.00
2019-03-12T07:37:30.490Z,1956.00
2019-03-12T07:38:30.468Z,2052.00
2019-03-12T07:39:30.439Z,2136.00
2019-03-12T07:40:30.449Z,2180.00
2019-03-12T07:41:32.717Z,2196.00
2019-03-12T07:42:30.378Z,2244.00
2019-03-12T07:43:30.436Z,2264.00
2019-03-12T07:44:30.347Z,2272.00
2019-03-12T07:45:30.311Z,2228.00
2019-03-12T07:46:30.309Z,2124.00
2019-03-12T07:47:35.738Z,2152.00
2019-03-12T07:48:30.250Z,2264.00
2019-03-12T07:49:30.239Z,2404.00
2019-03-12T07:50:30.239Z,2476.00
2019-03-12T07:51:30.200Z,2552.00
2019-03-12T07:52:30.163Z,2672.00
2019-03-12T07:53:30.154Z,2828.00
2019-03-12T07:54:30.133Z,3024.00
2019-03-12T07:55:30.101Z,3168.00
2019-03-12T07:56:30.093Z,3292.00
2019-03-12T07:57:30.083Z,3368.00
2019-03-12T07:58:35.596Z,3464.00
2019-03-12T07:59:30.018Z,3436.00
2019-03-12T08:00:29.991Z,3392.00
2019-03-12T08:01:29.970Z,3324.00
2019-03-12T08:02:29.963Z,3368.00
2019-03-12T08:03:29.927Z,3496.00
2019-03-12T08:04:29.928Z,3644.00
2019-03-12T08:05:29.885Z,3780.00
2019-03-12T08:06:29.869Z,3900.00
2019-03-12T08:07:29.837Z,4064.00
2019-03-12T08:08:29.835Z,4292.00
2019-03-12T08:09:29.795Z,4428.00
2019-03-12T08:10:29.778Z,4508.00
2019-03-12T08:11:29.754Z,4484.00
2019-03-12T08:12:29.732Z,4456.00
2019-03-12T08:13:29.722Z,4420.00
2019-03-12T08:14:29.687Z,4384.00
2019-03-12T08:15:29.679Z,4368.00
2019-03-12T08:16:29.655Z,4448.00
2019-03-12T08:17:29.631Z,4564.00
2019-03-12T08:18:29.651Z,4560.00
2019-03-12T08:19:29.584Z,4472.00
2019-03-12T08:20:29.561Z,4400.00
2019-03-12T08:21:29.541Z,4320.00
2019-03-12T08:22:29.523Z,4020.00
2019-03-12T08:23:29.505Z,3836.00
2019-03-12T08:24:29.496Z,3888.00
2019-03-12T08:25:29.498Z,4044.00
2019-03-12T08:26:29.435Z,4072.00
2019-03-12T08:27:29.413Z,4156.00
2019-03-12T08:28:29.390Z,4136.00
2019-03-12T08:29:29.379Z,4156.00
2019-03-12T08:30:29.349Z,4236.00
2019-03-12T08:31:29.363Z,4244.00
2019-03-12T08:32:29.304Z,4292.00
2019-03-12T08:33:29.288Z,4360.00
2019-03-12T08:34:29.270Z,4356.00
2019-03-12T08:35:29.250Z,4364.00
2019-03-12T08:36:29.248Z,4324.00
2019-03-12T08:37:29.204Z,4292.00
2019-03-12T08:38:29.267Z,4316.00
2019-03-12T08:39:29.165Z,4340.00
2019-03-12T08:40:29.142Z,4368.00
2019-03-12T08:41:29.133Z,4344.00
2019-03-12T08:42:29.108Z,4344.00
2019-03-12T08:43:29.075Z,4472.00
2019-03-12T08:44:29.058Z,4680.00
2019-03-12T08:45:29.035Z,4964.00
2019-03-12T08:46:29.018Z,5216.00
2019-03-12T08:47:29.014Z,5464.00
2019-03-12T08:48:28.988Z,5760.00
2019-03-12T08:49:28.949Z,5904.00
2019-03-12T08:50:28.945Z,6072.00
2019-03-12T08:51:28.912Z,6216.00
2019-03-12T08:52:28.885Z,6412.00
2019-03-12T08:53:28.864Z,6532.00
2019-03-12T08:54:28.866Z,6664.00
2019-03-12T08:55:28.831Z,6708.00
2019-03-12T08:56:28.809Z,6628.00
2019-03-12T08:57:28.790Z,6452.00
2019-03-12T08:58:28.764Z,6292.00
2019-03-12T08:59:28.745Z,6076.00
2019-03-12T09:00:28.739Z,5988.00
2019-03-12T09:01:28.701Z,5980.00
2019-03-12T09:02:28.687Z,6064.00
2019-03-12T09:03:28.670Z,6192.00
2019-03-12T09:04:28.675Z,6332.00
2019-03-12T09:05:28.632Z,6416.00
2019-03-12T09:06:28.598Z,6596.00
2019-03-12T09:07:28.587Z,6636.00
2019-03-12T09:08:28.559Z,6700.00
2019-03-12T09:09:28.552Z,6684.00
2019-03-12T09:10:28.537Z,6448.00
2019-03-12T09:11:28.498Z,6304.00
2019-03-12T09:12:28.477Z,6264.00
2019-03-12T09:13:28.456Z,6360.00
2019-03-12T09:14:28.455Z,6248.00
2019-03-12T09:15:28.438Z,6244.00
2019-03-12T09:16:28.400Z,6296.00
2019-03-12T09:17:28.387Z,6188.00
2019-03-12T09:18:28.353Z,6076.00
2019-03-12T09:19:28.349Z,6136.00
2019-03-12T09:20:28.313Z,6184.00
2019-03-12T09:21:28.326Z,6424.00
2019-03-12T09:22:28.274Z,6632.00
2019-03-12T09:23:28.271Z,6648.00
2019-03-12T09:24:28.238Z,6528.00
2019-03-12T09:25:28.214Z,6284.00
2019-03-12T09:26:28.213Z,5740.00
2019-03-12T09:27:28.171Z,5360.00
2019-03-12T09:28:28.185Z,5264.00
2019-03-12T09:29:28.136Z,5096.00
2019-03-12T09:30:28.125Z,5056.00
2019-03-12T09:31:28.092Z,5208.00
2019-03-12T09:32:28.091Z,5288.00
2019-03-12T09:33:28.056Z,5440.00
2019-03-12T09:34:28.042Z,5472.00
2019-03-12T09:35:28.013Z,5628.00
2019-03-12T09:36:27.989Z,5712.00
2019-03-12T09:37:27.981Z,5796.00
2019-03-12T09:38:27.975Z,5840.00
2019-03-12T09:39:27.940Z,5744.00
2019-03-12T09:40:27.919Z,5800.00
2019-03-12T09:41:27.894Z,5648.00
2019-03-12T09:42:27.870Z,5500.00
2019-03-12T09:43:27.854Z,5536.00
2019-03-12T09:44:27.847Z,5640.00
2019-03-12T09:45:27.823Z,5844.00
2019-03-12T09:46:27.787Z,5972.00
2019-03-12T09:47:27.786Z,6084.00
2019-03-12T09:48:27.751Z,6060.00
2019-03-12T09:49:27.999Z,6076.00
2019-03-12T09:50:27.713Z,6012.00
2019-03-12T09:51:27.696Z,5920.00
2019-03-12T09:52:27.672Z,5992.00
2019-03-12T09:53:27.647Z,6140.00
2019-03-12T09:54:27.647Z,6400.00
2019-03-12T09:55:27.609Z,6580.00
2019-03-12T09:56:27.586Z,6596.00
2019-03-12T09:57:27.583Z,6664.00
2019-03-12T09:58:27.561Z,6900.00
2019-03-12T09:59:27.525Z,7152.00
2019-03-12T10:00:27.505Z,7304.00
2019-03-12T10:01:27.487Z,7388.00
2019-03-12T10:02:27.487Z,7556.00
2019-03-12T10:03:27.450Z,7856.00
2019-03-12T10:04:27.628Z,7880.00
2019-03-12T10:05:27.401Z,7984.00
2019-03-12T10:06:27.389Z,7920.00
2019-03-12T10:07:27.397Z,8056.00
2019-03-12T10:08:27.344Z,8120.00
2019-03-12T10:09:27.331Z,7992.00
2019-03-12T10:10:27.304Z,8100.00
2019-03-12T10:11:27.283Z,8076.00
2019-03-12T10:12:27.277Z,8280.00
2019-03-12T10:13:27.243Z,8456.00
2019-03-12T10:14:27.241Z,8792.00
2019-03-12T10:15:27.206Z,8728.00
2019-03-12T10:16:27.187Z,9216.00
2019-03-12T10:17:27.166Z,9052.00
2019-03-12T10:18:27.166Z,9832.00
2019-03-12T10:19:27.126Z,7992.00
2019-03-12T10:20:27.102Z,8524.00
2019-03-12T10:21:27.084Z,8784.00
2019-03-12T10:22:27.063Z,8752.00
2019-03-12T10:23:27.068Z,8876.00
2019-03-12T10:24:28.744Z,9464.00
2019-03-12T10:25:27.007Z,9140.00
2019-03-12T10:26:26.988Z,9160.00
2019-03-12T10:27:26.968Z,9412.00
2019-03-12T10:28:26.944Z,9520.00
2019-03-12T10:29:26.945Z,9720.00
2019-03-12T10:30:26.913Z,11240.00
2019-03-12T10:31:26.887Z,9972.00
2019-03-12T10:32:26.883Z,9900.00
2019-03-12T10:33:26.864Z,10352.00
2019-03-12T10:34:30.019Z,11136.00
2019-03-12T10:35:26.812Z,9808.00
2019-03-12T10:36:26.792Z,10176.00
2019-03-12T10:39:08.909Z,11808.00
2019-03-12T10:40:08.906Z,11508.00
2019-03-12T10:41:08.888Z,11436.00
2019-03-12T10:42:08.852Z,11264.00
2019-03-12T10:43:08.830Z,10532.00
2019-03-12T10:44:08.807Z,11020.00
2019-03-12T10:45:08.791Z,11512.00
2019-03-12T10:46:08.791Z,11204.00
2019-03-12T10:47:08.755Z,11472.00
2019-03-12T10:48:08.738Z,11272.00
2019-03-12T10:49:08.718Z,11048.00
2019-03-12T10:50:08.702Z,11200.00
2019-03-12T10:51:08.678Z,10920.00
2019-03-12T10:52:08.696Z,10844.00
2019-03-12T10:53:08.643Z,10756.00
2019-03-12T10:54:08.618Z,11068.00
2019-03-12T10:55:13.432Z,11140.00
2019-03-12T10:56:08.594Z,11176.00
2019-03-12T10:57:08.568Z,11372.00
2019-03-12T10:58:08.580Z,10908.00
2019-03-12T10:59:08.557Z,10852.00
2019-03-12T11:00:08.514Z,9988.00
2019-03-12T11:01:08.502Z,9736.00
2019-03-12T11:02:08.500Z,9316.00
2019-03-12T11:03:08.461Z,9024.00
2019-03-12T11:04:08.460Z,8872.00
2019-03-12T11:05:08.426Z,8944.00
2019-03-12T11:06:08.405Z,9076.00
2019-03-12T11:07:16.471Z,9388.00
2019-03-12T11:08:08.374Z,9384.00
2019-03-12T11:09:08.372Z,9384.00
2019-03-12T11:10:08.332Z,9356.00
2019-03-12T11:11:08.358Z,9204.00
2019-03-12T11:12:08.294Z,9216.00
2019-03-12T11:13:08.294Z,9256.00
2019-03-12T11:14:08.269Z,9124.00
2019-03-12T11:15:08.250Z,9184.00
2019-03-12T11:16:08.224Z,9096.00
2019-03-12T11:17:08.200Z,9528.00
2019-03-12T11:18:08.184Z,9448.00
2019-03-12T11:19:08.183Z,9528.00
2019-03-12T11:20:08.158Z,9524.00
2019-03-12T11:21:08.128Z,9488.00
2019-03-12T11:22:08.109Z,9612.00
2019-03-12T11:23:08.126Z,9832.00
2019-03-12T11:24:08.095Z,10064.00
2019-03-12T11:25:08.052Z,10376.00
2019-03-12T11:26:08.033Z,11376.00
2019-03-12T11:27:08.018Z,10792.00
2019-03-12T11:28:07.994Z,11116.00
2019-03-12T11:29:07.993Z,11492.00
2019-03-12T11:30:07.979Z,11328.00
2019-03-12T11:31:07.959Z,11136.00
2019-03-12T11:32:07.921Z,10920.00
2019-03-12T11:33:07.926Z,10032.00
2019-03-12T11:34:07.883Z,9892.00
2019-03-12T11:35:07.870Z,10344.00
2019-03-12T11:36:07.853Z,10744.00
2019-03-12T11:37:07.862Z,11344.00
2019-03-12T11:38:07.812Z,11592.00
2019-03-12T11:39:07.855Z,11812.00
2019-03-12T11:40:07.775Z,11776.00
2019-03-12T11:41:07.774Z,12152.00
2019-03-12T11:42:07.783Z,12508.00
2019-03-12T11:43:07.718Z,13072.00
2019-03-12T11:44:07.702Z,12144.00
2019-03-12T11:45:15.115Z,12524.00
2019-03-12T11:46:07.674Z,11828.00
2019-03-12T11:47:07.785Z,12016.00
2019-03-12T11:48:07.651Z,11700.00
2019-03-12T11:49:07.647Z,11592.00
2019-03-12T11:50:07.589Z,12248.00
2019-03-12T11:51:07.625Z,11704.00
2019-03-12T11:52:07.556Z,12632.00
2019-03-12T11:53:07.552Z,11676.00
2019-03-12T11:54:07.542Z,11620.00
2019-03-12T11:55:07.502Z,11628.00
2019-03-12T11:56:07.486Z,11296.00
2019-03-12T11:57:07.515Z,12056.00
2019-03-12T11:58:07.465Z,11576.00
2019-03-12T11:59:07.434Z,11964.00
2019-03-12T12:00:07.415Z,11720.00
2019-03-12T12:01:07.404Z,11436.00
2019-03-12T12:02:07.393Z,10916.00
2019-03-12T12:03:07.360Z,11000.00
2019-03-12T12:04:07.406Z,11256.00
2019-03-12T12:05:07.323Z,10992.00
2019-03-12T12:06:07.323Z,10528.00
2019-03-12T12:07:07.298Z,10788.00
2019-03-12T12:08:07.274Z,10160.00
2019-03-12T12:09:07.275Z,10108.00
2019-03-12T12:10:07.233Z,10656.00
2019-03-12T12:11:07.235Z,10728.00
2019-03-12T12:12:07.214Z,11888.00
2019-03-12T12:13:07.180Z,10888.00
2019-03-12T12:14:07.165Z,10248.00
2019-03-12T12:15:07.147Z,10360.00
2019-03-12T12:16:07.127Z,10116.00
2019-03-12T12:17:07.143Z,10132.00
2019-03-12T12:18:07.125Z,9764.00
2019-03-12T12:19:07.077Z,9468.00
2019-03-12T12:20:07.056Z,9240.00
2019-03-12T12:21:07.037Z,8992.00
2019-03-12T12:22:07.020Z,9068.00
2019-03-12T12:23:07.003Z,9288.00
2019-03-12T12:24:07.004Z,9432.00
2019-03-12T12:25:06.969Z,10296.00
2019-03-12T12:26:06.952Z,10536.00
2019-03-12T12:27:06.938Z,10692.00
2019-03-12T12:28:06.913Z,10444.00
2019-03-12T12:29:06.902Z,10920.00
2019-03-12T12:30:06.907Z,11172.00
2019-03-12T12:31:06.859Z,12048.00
2019-03-12T12:32:06.848Z,12068.00
2019-03-12T12:33:06.825Z,11668.00
2019-03-12T12:34:06.825Z,10644.00
2019-03-12T12:35:06.791Z,10756.00
2019-03-12T12:36:06.768Z,11728.00
2019-03-12T12:37:06.773Z,12272.00
2019-03-12T12:38:06.757Z,13220.00